sensor_id;sensor_type;location;lat;lon;timestamp;temperature;humidity
3300;DHT22;1662;49.310;8.134;2023-11-22T00:00:12;7.50;99.90
3300;DHT22;1662;49.310;8.134;2023-11-22T00:02:39;7.50;99.90
3300;DHT22;1662;49.310;8.134;2023-11-22T00:05:05;7.40;99.90
3300;DHT22;1662;49.310;8.134;2023-11-22T00:07:34;7.40;99.90
3300;DHT22;1662;49.310;8.134;2023-11-22T00:10:02;7.50;99.90
3300;DHT22;1662;49.310;8.134;2023-11-22T00:12:30;7.40;99.90
3300;DHT22;1662;49.310;8.134;2023-11-22T00:15:02;7.50;99.90
3300;DHT22;1662;49.310;8.134;2023-11-22T00:17:31;7.30;99.90
3300;DHT22;1662;49.310;8.134;2023-11-22T00:19:56;7.30;99.90
3300;DHT22;1662;49.310;8.134;2023-11-22T00:22:22;7.30;99.90
3300;DHT22;1662;49.310;8.134;2023-11-22T00:24:47;7.10;99.90
3300;DHT22;1662;49.310;8.134;2023-11-22T00:27:16;7.10;99.90
3300;DHT22;1662;49.310;8.134;2023-11-22T00:29:41;7.10;99.90
3300;DHT22;1662;49.310;8.134;2023-11-22T00:32:07;7.20;99.90
3300;DHT22;1662;49.310;8.134;2023-11-22T00:34:35;7.10;99.90
3300;DHT22;1662;49.310;8.134;2023-11-22T00:37:01;7.10;99.90
3300;DHT22;1662;49.310;8.134;2023-11-22T00:39:27;7.00;99.90
3300;DHT22;1662;49.310;8.134;2023-11-22T00:41:53;7.00;99.90
3300;DHT22;1662;49.310;8.134;2023-11-22T00:44:18;7.00;99.90
3300;DHT22;1662;49.310;8.134;2023-11-22T00:46:44;7.00;99.90
3300;DHT22;1662;49.310;8.134;2023-11-22T00:49:11;7.00;99.90
3300;DHT22;1662;49.310;8.134;2023-11-22T00:51:36;7.10;99.90
3300;DHT22;1662;49.310;8.134;2023-11-22T00:54:02;6.90;99.90
3300;DHT22;1662;49.310;8.134;2023-11-22T00:56:27;7.10;99.90
3300;DHT22;1662;49.310;8.134;2023-11-22T00:58:53;7.10;99.90
3300;DHT22;1662;49.310;8.134;2023-11-22T01:01:25;7.10;99.90
3300;DHT22;1662;49.310;8.134;2023-11-22T01:03:51;7.10;99.90
3300;DHT22;1662;49.310;8.134;2023-11-22T01:06:16;7.00;99.90
3300;DHT22;1662;49.310;8.134;2023-11-22T01:08:43;7.00;99.90
3300;DHT22;1662;49.310;8.134;2023-11-22T01:11:11;7.00;99.90
3300;DHT22;1662;49.310;8.134;2023-11-22T01:13:37;7.00;99.90
3300;DHT22;1662;49.310;8.134;2023-11-22T01:16:07;7.00;99.90
3300;DHT22;1662;49.310;8.134;2023-11-22T01:18:33;7.00;99.90
3300;DHT22;1662;49.310;8.134;2023-11-22T01:20:58;6.90;99.90
3300;DHT22;1662;49.310;8.134;2023-11-22T01:23:24;6.90;99.90
3300;DHT22;1662;49.310;8.134;2023-11-22T01:25:50;6.90;99.90
3300;DHT22;1662;49.310;8.134;2023-11-22T01:28:16;7.00;99.90
3300;DHT22;1662;49.310;8.134;2023-11-22T01:30:45;6.90;99.90
3300;DHT22;1662;49.310;8.134;2023-11-22T01:33:17;6.80;99.90
3300;DHT22;1662;49.310;8.134;2023-11-22T01:35:42;6.80;99.90
3300;DHT22;1662;49.310;8.134;2023-11-22T01:38:08;6.70;99.90
3300;DHT22;1662;49.310;8.134;2023-11-22T01:40:46;6.70;99.90
3300;DHT22;1662;49.310;8.134;2023-11-22T01:43:19;6.70;99.90
3300;DHT22;1662;49.310;8.134;2023-11-22T01:45:45;6.70;99.90
3300;DHT22;1662;49.310;8.134;2023-11-22T01:48:11;6.60;99.90
3300;DHT22;1662;49.310;8.134;2023-11-22T01:50:41;6.50;99.90
3300;DHT22;1662;49.310;8.134;2023-11-22T01:53:09;6.60;99.90
3300;DHT22;1662;49.310;8.134;2023-11-22T01:55:36;6.60;99.90
3300;DHT22;1662;49.310;8.134;2023-11-22T01:58:02;6.50;99.90
3300;DHT22;1662;49.310;8.134;2023-11-22T02:00:32;6.60;99.90
3300;DHT22;1662;49.310;8.134;2023-11-22T02:02:58;6.50;99.90
3300;DHT22;1662;49.310;8.134;2023-11-22T02:05:24;6.50;99.90
3300;DHT22;1662;49.310;8.134;2023-11-22T02:07:49;6.50;99.90
3300;DHT22;1662;49.310;8.134;2023-11-22T02:10:15;6.50;99.90
3300;DHT22;1662;49.310;8.134;2023-11-22T02:12:42;6.40;99.90
3300;DHT22;1662;49.310;8.134;2023-11-22T02:15:08;6.30;99.90
3300;DHT22;1662;49.310;8.134;2023-11-22T02:17:34;6.20;99.90
3300;DHT22;1662;49.310;8.134;2023-11-22T02:19:59;6.10;99.90
3300;DHT22;1662;49.310;8.134;2023-11-22T02:22:25;6.00;99.90
3300;DHT22;1662;49.310;8.134;2023-11-22T02:24:51;6.00;99.90
3300;DHT22;1662;49.310;8.134;2023-11-22T02:27:16;6.00;99.90
3300;DHT22;1662;49.310;8.134;2023-11-22T02:29:42;6.00;99.90
3300;DHT22;1662;49.310;8.134;2023-11-22T02:32:08;6.10;99.90
3300;DHT22;1662;49.310;8.134;2023-11-22T02:34:33;6.00;99.90
3300;DHT22;1662;49.310;8.134;2023-11-22T02:36:59;6.00;99.90
3300;DHT22;1662;49.310;8.134;2023-11-22T02:39:32;6.00;99.90
3300;DHT22;1662;49.310;8.134;2023-11-22T02:42:01;5.90;99.90
3300;DHT22;1662;49.310;8.134;2023-11-22T02:44:27;5.90;99.90
3300;DHT22;1662;49.310;8.134;2023-11-22T02:46:53;5.90;99.90
3300;DHT22;1662;49.310;8.134;2023-11-22T02:49:19;5.80;99.90
3300;DHT22;1662;49.310;8.134;2023-11-22T02:51:45;5.80;99.90
3300;DHT22;1662;49.310;8.134;2023-11-22T02:54:11;5.80;99.90
3300;DHT22;1662;49.310;8.134;2023-11-22T02:56:37;5.80;99.90
3300;DHT22;1662;49.310;8.134;2023-11-22T02:59:03;5.70;99.90
3300;DHT22;1662;49.310;8.134;2023-11-22T03:01:28;5.70;99.90
3300;DHT22;1662;49.310;8.134;2023-11-22T03:03:54;5.60;99.90
3300;DHT22;1662;49.310;8.134;2023-11-22T03:06:19;5.60;99.90
3300;DHT22;1662;49.310;8.134;2023-11-22T03:08:45;5.60;99.90
3300;DHT22;1662;49.310;8.134;2023-11-22T03:11:10;5.50;99.90
3300;DHT22;1662;49.310;8.134;2023-11-22T03:13:36;5.50;99.90
3300;DHT22;1662;49.310;8.134;2023-11-22T03:16:04;5.50;99.90
3300;DHT22;1662;49.310;8.134;2023-11-22T03:18:29;5.50;99.90
3300;DHT22;1662;49.310;8.134;2023-11-22T03:20:56;5.50;99.90
3300;DHT22;1662;49.310;8.134;2023-11-22T03:23:22;5.60;99.90
3300;DHT22;1662;49.310;8.134;2023-11-22T03:25:48;5.60;99.90
3300;DHT22;1662;49.310;8.134;2023-11-22T03:28:13;5.60;99.90
3300;DHT22;1662;49.310;8.134;2023-11-22T03:30:39;5.50;99.90
3300;DHT22;1662;49.310;8.134;2023-11-22T03:33:05;5.50;99.90
3300;DHT22;1662;49.310;8.134;2023-11-22T03:35:31;5.50;99.90
3300;DHT22;1662;49.310;8.134;2023-11-22T03:37:59;5.50;99.90
3300;DHT22;1662;49.310;8.134;2023-11-22T03:40:24;5.50;99.90
3300;DHT22;1662;49.310;8.134;2023-11-22T03:42:50;5.40;99.90
3300;DHT22;1662;49.310;8.134;2023-11-22T03:45:16;5.40;99.90
3300;DHT22;1662;49.310;8.134;2023-11-22T03:47:41;6.10;99.90
3300;DHT22;1662;49.310;8.134;2023-11-22T03:50:07;5.60;99.90
3300;DHT22;1662;49.310;8.134;2023-11-22T03:52:33;5.40;99.90
3300;DHT22;1662;49.310;8.134;2023-11-22T03:54:59;5.40;99.90
3300;DHT22;1662;49.310;8.134;2023-11-22T03:57:24;5.30;99.90
3300;DHT22;1662;49.310;8.134;2023-11-22T03:59:50;5.30;99.90
3300;DHT22;1662;49.310;8.134;2023-11-22T04:02:16;5.20;99.90
3300;DHT22;1662;49.310;8.134;2023-11-22T04:04:41;5.40;99.90
3300;DHT22;1662;49.310;8.134;2023-11-22T04:07:07;5.20;99.90
3300;DHT22;1662;49.310;8.134;2023-11-22T04:09:33;5.20;99.90
3300;DHT22;1662;49.310;8.134;2023-11-22T04:11:59;5.20;99.90
3300;DHT22;1662;49.310;8.134;2023-11-22T04:14:25;5.20;99.90
3300;DHT22;1662;49.310;8.134;2023-11-22T04:16:53;5.10;99.90
3300;DHT22;1662;49.310;8.134;2023-11-22T04:19:18;5.20;99.90
3300;DHT22;1662;49.310;8.134;2023-11-22T04:21:44;5.10;99.90
3300;DHT22;1662;49.310;8.134;2023-11-22T04:24:10;5.10;99.90
3300;DHT22;1662;49.310;8.134;2023-11-22T04:26:37;5.10;99.90
3300;DHT22;1662;49.310;8.134;2023-11-22T04:29:03;5.10;99.90
3300;DHT22;1662;49.310;8.134;2023-11-22T04:31:30;5.10;99.90
3300;DHT22;1662;49.310;8.134;2023-11-22T04:33:55;5.20;99.90
3300;DHT22;1662;49.310;8.134;2023-11-22T04:36:23;5.10;99.90
3300;DHT22;1662;49.310;8.134;2023-11-22T04:38:48;5.20;99.90
3300;DHT22;1662;49.310;8.134;2023-11-22T04:41:15;5.00;99.90
3300;DHT22;1662;49.310;8.134;2023-11-22T04:43:41;5.00;99.90
3300;DHT22;1662;49.310;8.134;2023-11-22T04:46:07;4.90;99.90
3300;DHT22;1662;49.310;8.134;2023-11-22T04:48:34;5.00;99.90
3300;DHT22;1662;49.310;8.134;2023-11-22T04:50:59;4.90;99.90
3300;DHT22;1662;49.310;8.134;2023-11-22T04:53:25;4.90;99.90
3300;DHT22;1662;49.310;8.134;2023-11-22T04:55:51;4.90;99.90
3300;DHT22;1662;49.310;8.134;2023-11-22T04:58:16;4.80;99.90
3300;DHT22;1662;49.310;8.134;2023-11-22T05:00:42;4.80;99.90
3300;DHT22;1662;49.310;8.134;2023-11-22T05:03:07;4.80;99.90
3300;DHT22;1662;49.310;8.134;2023-11-22T05:05:33;4.80;99.90
3300;DHT22;1662;49.310;8.134;2023-11-22T05:07:58;5.10;99.90
3300;DHT22;1662;49.310;8.134;2023-11-22T05:10:24;4.70;99.90
3300;DHT22;1662;49.310;8.134;2023-11-22T05:12:50;4.80;99.90
3300;DHT22;1662;49.310;8.134;2023-11-22T05:15:17;4.70;99.90
3300;DHT22;1662;49.310;8.134;2023-11-22T05:17:43;4.80;99.90
3300;DHT22;1662;49.310;8.134;2023-11-22T05:20:09;4.80;99.90
3300;DHT22;1662;49.310;8.134;2023-11-22T05:22:36;4.80;99.90
3300;DHT22;1662;49.310;8.134;2023-11-22T05:25:01;4.80;99.90
3300;DHT22;1662;49.310;8.134;2023-11-22T05:27:27;4.80;99.90
3300;DHT22;1662;49.310;8.134;2023-11-22T05:29:54;4.70;99.90
3300;DHT22;1662;49.310;8.134;2023-11-22T05:32:19;4.60;99.90
3300;DHT22;1662;49.310;8.134;2023-11-22T05:34:45;4.60;99.90
3300;DHT22;1662;49.310;8.134;2023-11-22T05:37:11;4.90;99.90
3300;DHT22;1662;49.310;8.134;2023-11-22T05:39:37;4.60;99.90
3300;DHT22;1662;49.310;8.134;2023-11-22T05:42:03;4.60;99.90
3300;DHT22;1662;49.310;8.134;2023-11-22T05:44:28;4.60;99.90
3300;DHT22;1662;49.310;8.134;2023-11-22T05:47:13;4.60;99.90
3300;DHT22;1662;49.310;8.134;2023-11-22T05:49:39;4.60;99.90
3300;DHT22;1662;49.310;8.134;2023-11-22T05:52:07;4.50;99.90
3300;DHT22;1662;49.310;8.134;2023-11-22T05:54:33;4.50;99.90
3300;DHT22;1662;49.310;8.134;2023-11-22T05:56:58;4.50;99.90
3300;DHT22;1662;49.310;8.134;2023-11-22T05:59:24;4.50;99.90
3300;DHT22;1662;49.310;8.134;2023-11-22T06:01:49;4.40;99.90
3300;DHT22;1662;49.310;8.134;2023-11-22T06:04:15;4.40;99.90
3300;DHT22;1662;49.310;8.134;2023-11-22T06:06:40;4.40;99.90
3300;DHT22;1662;49.310;8.134;2023-11-22T06:09:06;4.40;99.90
3300;DHT22;1662;49.310;8.134;2023-11-22T06:11:32;4.40;99.90
3300;DHT22;1662;49.310;8.134;2023-11-22T06:13:58;4.40;99.90
3300;DHT22;1662;49.310;8.134;2023-11-22T06:16:23;4.30;99.90
3300;DHT22;1662;49.310;8.134;2023-11-22T06:18:49;4.30;99.90
3300;DHT22;1662;49.310;8.134;2023-11-22T06:21:15;4.20;99.90
3300;DHT22;1662;49.310;8.134;2023-11-22T06:23:40;4.20;99.90
3300;DHT22;1662;49.310;8.134;2023-11-22T06:26:06;4.40;99.90
3300;DHT22;1662;49.310;8.134;2023-11-22T06:28:32;4.40;99.90
3300;DHT22;1662;49.310;8.134;2023-11-22T06:30:57;4.40;99.90
3300;DHT22;1662;49.310;8.134;2023-11-22T06:33:23;4.30;99.90
3300;DHT22;1662;49.310;8.134;2023-11-22T06:35:48;4.20;99.90
3300;DHT22;1662;49.310;8.134;2023-11-22T06:38:14;4.20;99.90
3300;DHT22;1662;49.310;8.134;2023-11-22T06:40:40;4.20;99.90
3300;DHT22;1662;49.310;8.134;2023-11-22T06:43:05;4.10;99.90
3300;DHT22;1662;49.310;8.134;2023-11-22T06:45:33;4.20;99.90
3300;DHT22;1662;49.310;8.134;2023-11-22T06:48:00;4.20;99.90
3300;DHT22;1662;49.310;8.134;2023-11-22T06:50:25;4.10;99.90
3300;DHT22;1662;49.310;8.134;2023-11-22T06:52:54;4.20;99.90
3300;DHT22;1662;49.310;8.134;2023-11-22T06:55:20;4.20;99.90
3300;DHT22;1662;49.310;8.134;2023-11-22T06:57:45;4.40;99.90
3300;DHT22;1662;49.310;8.134;2023-11-22T07:00:11;4.20;99.90
3300;DHT22;1662;49.310;8.134;2023-11-22T07:02:42;4.20;99.90
3300;DHT22;1662;49.310;8.134;2023-11-22T07:05:07;4.20;99.90
3300;DHT22;1662;49.310;8.134;2023-11-22T07:07:36;4.20;99.90
3300;DHT22;1662;49.310;8.134;2023-11-22T07:10:02;4.20;99.90
3300;DHT22;1662;49.310;8.134;2023-11-22T07:12:31;4.20;99.90
3300;DHT22;1662;49.310;8.134;2023-11-22T07:14:56;4.10;99.90
3300;DHT22;1662;49.310;8.134;2023-11-22T07:17:22;4.10;99.90
3300;DHT22;1662;49.310;8.134;2023-11-22T07:19:48;4.10;99.90
3300;DHT22;1662;49.310;8.134;2023-11-22T07:22:14;4.10;99.90
3300;DHT22;1662;49.310;8.134;2023-11-22T07:24:45;4.10;99.90
3300;DHT22;1662;49.310;8.134;2023-11-22T07:27:12;4.10;99.90
3300;DHT22;1662;49.310;8.134;2023-11-22T07:29:41;4.10;99.90
3300;DHT22;1662;49.310;8.134;2023-11-22T07:32:07;4.10;99.90
3300;DHT22;1662;49.310;8.134;2023-11-22T07:34:38;4.00;99.90
3300;DHT22;1662;49.310;8.134;2023-11-22T07:37:05;4.00;99.90
3300;DHT22;1662;49.310;8.134;2023-11-22T07:39:33;4.10;99.90
3300;DHT22;1662;49.310;8.134;2023-11-22T07:41:58;4.10;99.90
3300;DHT22;1662;49.310;8.134;2023-11-22T07:44:26;4.10;99.90
3300;DHT22;1662;49.310;8.134;2023-11-22T07:46:52;4.10;99.90
3300;DHT22;1662;49.310;8.134;2023-11-22T07:49:19;4.00;99.90
3300;DHT22;1662;49.310;8.134;2023-11-22T07:51:46;4.00;99.90
3300;DHT22;1662;49.310;8.134;2023-11-22T07:54:14;4.10;99.90
3300;DHT22;1662;49.310;8.134;2023-11-22T07:56:43;4.00;99.90
3300;DHT22;1662;49.310;8.134;2023-11-22T07:59:10;4.00;99.90
3300;DHT22;1662;49.310;8.134;2023-11-22T08:01:38;4.00;99.90
3300;DHT22;1662;49.310;8.134;2023-11-22T08:04:04;4.20;99.90
3300;DHT22;1662;49.310;8.134;2023-11-22T08:06:31;5.20;99.90
3300;DHT22;1662;49.310;8.134;2023-11-22T08:08:58;6.40;99.90
3300;DHT22;1662;49.310;8.134;2023-11-22T08:11:30;7.00;99.90
3300;DHT22;1662;49.310;8.134;2023-11-22T08:13:57;6.70;99.90
3300;DHT22;1662;49.310;8.134;2023-11-22T08:16:25;6.30;99.90
3300;DHT22;1662;49.310;8.134;2023-11-22T08:18:51;6.40;99.90
3300;DHT22;1662;49.310;8.134;2023-11-22T08:21:16;5.90;99.90
3300;DHT22;1662;49.310;8.134;2023-11-22T08:23:42;5.00;99.90
3300;DHT22;1662;49.310;8.134;2023-11-22T08:26:08;4.70;99.90
3300;DHT22;1662;49.310;8.134;2023-11-22T08:28:34;4.50;99.90
3300;DHT22;1662;49.310;8.134;2023-11-22T08:31:00;4.40;99.90
3300;DHT22;1662;49.310;8.134;2023-11-22T08:33:29;4.30;99.90
3300;DHT22;1662;49.310;8.134;2023-11-22T08:35:55;4.30;99.90
3300;DHT22;1662;49.310;8.134;2023-11-22T08:38:25;4.30;99.90
3300;DHT22;1662;49.310;8.134;2023-11-22T08:40:53;4.40;99.90
3300;DHT22;1662;49.310;8.134;2023-11-22T08:43:20;4.40;99.90
3300;DHT22;1662;49.310;8.134;2023-11-22T08:45:49;4.40;99.90
3300;DHT22;1662;49.310;8.134;2023-11-22T08:48:14;4.50;99.90
3300;DHT22;1662;49.310;8.134;2023-11-22T08:50:41;4.40;99.90
3300;DHT22;1662;49.310;8.134;2023-11-22T08:53:06;4.40;99.90
3300;DHT22;1662;49.310;8.134;2023-11-22T08:55:32;4.40;99.90
3300;DHT22;1662;49.310;8.134;2023-11-22T08:57:59;4.50;99.90
3300;DHT22;1662;49.310;8.134;2023-11-22T09:00:25;4.50;99.90
3300;DHT22;1662;49.310;8.134;2023-11-22T09:02:53;4.50;99.90
3300;DHT22;1662;49.310;8.134;2023-11-22T09:05:20;4.60;99.90
3300;DHT22;1662;49.310;8.134;2023-11-22T09:07:47;4.60;99.90
3300;DHT22;1662;49.310;8.134;2023-11-22T09:10:13;4.50;99.90
3300;DHT22;1662;49.310;8.134;2023-11-22T09:12:46;4.60;99.90
3300;DHT22;1662;49.310;8.134;2023-11-22T09:15:13;4.50;99.90
3300;DHT22;1662;49.310;8.134;2023-11-22T09:17:42;4.60;99.90
3300;DHT22;1662;49.310;8.134;2023-11-22T09:20:12;4.70;99.90
3300;DHT22;1662;49.310;8.134;2023-11-22T09:22:42;4.80;99.90
3300;DHT22;1662;49.310;8.134;2023-11-22T09:25:22;4.90;99.90
3300;DHT22;1662;49.310;8.134;2023-11-22T09:27:49;5.00;99.90
3300;DHT22;1662;49.310;8.134;2023-11-22T09:30:19;5.10;99.90
3300;DHT22;1662;49.310;8.134;2023-11-22T09:33:07;5.10;99.90
3300;DHT22;1662;49.310;8.134;2023-11-22T09:35:34;5.00;99.90
3300;DHT22;1662;49.310;8.134;2023-11-22T09:38:07;5.00;99.90
3300;DHT22;1662;49.310;8.134;2023-11-22T09:40:44;4.90;99.90
3300;DHT22;1662;49.310;8.134;2023-11-22T09:43:10;4.90;99.90
3300;DHT22;1662;49.310;8.134;2023-11-22T09:45:36;4.90;99.90
3300;DHT22;1662;49.310;8.134;2023-11-22T09:48:11;5.00;99.90
3300;DHT22;1662;49.310;8.134;2023-11-22T09:53:36;5.20;99.90
3300;DHT22;1662;49.310;8.134;2023-11-22T09:56:03;5.30;99.90
3300;DHT22;1662;49.310;8.134;2023-11-22T09:58:30;5.30;99.90
3300;DHT22;1662;49.310;8.134;2023-11-22T10:00:59;5.20;99.90
3300;DHT22;1662;49.310;8.134;2023-11-22T10:03:27;5.00;99.90
3300;DHT22;1662;49.310;8.134;2023-11-22T10:05:58;4.90;99.90
3300;DHT22;1662;49.310;8.134;2023-11-22T10:08:29;4.80;99.90
3300;DHT22;1662;49.310;8.134;2023-11-22T10:10:55;4.80;99.90
3300;DHT22;1662;49.310;8.134;2023-11-22T10:13:22;4.80;99.90
3300;DHT22;1662;49.310;8.134;2023-11-22T10:15:48;4.80;99.90
3300;DHT22;1662;49.310;8.134;2023-11-22T10:18:14;4.80;99.90
3300;DHT22;1662;49.310;8.134;2023-11-22T10:20:44;4.70;99.90
3300;DHT22;1662;49.310;8.134;2023-11-22T10:23:12;4.70;99.90
3300;DHT22;1662;49.310;8.134;2023-11-22T10:25:48;5.00;99.90
3300;DHT22;1662;49.310;8.134;2023-11-22T10:28:18;4.80;99.90
3300;DHT22;1662;49.310;8.134;2023-11-22T10:30:46;4.80;99.90
3300;DHT22;1662;49.310;8.134;2023-11-22T10:33:12;4.80;99.90
3300;DHT22;1662;49.310;8.134;2023-11-22T10:38:09;4.80;99.90
3300;DHT22;1662;49.310;8.134;2023-11-22T10:40:36;4.80;99.90
3300;DHT22;1662;49.310;8.134;2023-11-22T10:43:03;4.80;99.90
3300;DHT22;1662;49.310;8.134;2023-11-22T10:45:30;4.80;99.90
3300;DHT22;1662;49.310;8.134;2023-11-22T10:48:00;4.80;99.90
3300;DHT22;1662;49.310;8.134;2023-11-22T10:50:26;4.80;99.90
3300;DHT22;1662;49.310;8.134;2023-11-22T10:52:52;4.80;99.90
3300;DHT22;1662;49.310;8.134;2023-11-22T10:55:21;4.80;99.90
3300;DHT22;1662;49.310;8.134;2023-11-22T10:57:51;4.90;99.90
3300;DHT22;1662;49.310;8.134;2023-11-22T11:00:19;4.90;99.90
3300;DHT22;1662;49.310;8.134;2023-11-22T11:02:53;4.90;99.90
3300;DHT22;1662;49.310;8.134;2023-11-22T11:05:27;4.90;99.90
3300;DHT22;1662;49.310;8.134;2023-11-22T11:08:12;4.90;99.90
3300;DHT22;1662;49.310;8.134;2023-11-22T11:10:44;5.00;99.90
3300;DHT22;1662;49.310;8.134;2023-11-22T11:13:13;4.90;99.90
3300;DHT22;1662;49.310;8.134;2023-11-22T11:15:43;5.00;99.90
3300;DHT22;1662;49.310;8.134;2023-11-22T11:18:12;4.90;99.90
3300;DHT22;1662;49.310;8.134;2023-11-22T11:20:51;4.90;99.90
3300;DHT22;1662;49.310;8.134;2023-11-22T11:23:24;5.00;99.90
3300;DHT22;1662;49.310;8.134;2023-11-22T11:25:53;5.00;99.90
3300;DHT22;1662;49.310;8.134;2023-11-22T11:28:20;5.00;99.90
3300;DHT22;1662;49.310;8.134;2023-11-22T11:30:50;5.10;99.90
3300;DHT22;1662;49.310;8.134;2023-11-22T11:33:19;5.10;99.90
3300;DHT22;1662;49.310;8.134;2023-11-22T11:35:56;5.20;99.90
3300;DHT22;1662;49.310;8.134;2023-11-22T11:38:30;5.20;99.90
3300;DHT22;1662;49.310;8.134;2023-11-22T11:40:55;5.20;99.90
3300;DHT22;1662;49.310;8.134;2023-11-22T11:43:48;5.10;99.90
3300;DHT22;1662;49.310;8.134;2023-11-22T11:46:17;5.20;99.90
3300;DHT22;1662;49.310;8.134;2023-11-22T11:48:51;5.20;99.90
3300;DHT22;1662;49.310;8.134;2023-11-22T11:51:18;5.20;99.90
3300;DHT22;1662;49.310;8.134;2023-11-22T11:53:47;5.20;99.90
3300;DHT22;1662;49.310;8.134;2023-11-22T11:56:15;5.20;99.90
3300;DHT22;1662;49.310;8.134;2023-11-22T11:58:42;5.30;99.90
3300;DHT22;1662;49.310;8.134;2023-11-22T12:01:08;5.30;99.90
3300;DHT22;1662;49.310;8.134;2023-11-22T12:03:37;5.30;99.90
3300;DHT22;1662;49.310;8.134;2023-11-22T12:06:07;5.40;99.90
3300;DHT22;1662;49.310;8.134;2023-11-22T12:08:33;5.40;99.90
3300;DHT22;1662;49.310;8.134;2023-11-22T12:11:02;5.30;99.90
3300;DHT22;1662;49.310;8.134;2023-11-22T12:13:29;5.20;99.90
3300;DHT22;1662;49.310;8.134;2023-11-22T12:15:55;5.10;99.90
3300;DHT22;1662;49.310;8.134;2023-11-22T12:18:22;5.10;99.90
3300;DHT22;1662;49.310;8.134;2023-11-22T12:21:03;5.20;99.90
3300;DHT22;1662;49.310;8.134;2023-11-22T12:23:29;5.10;99.90
3300;DHT22;1662;49.310;8.134;2023-11-22T12:26:00;5.10;99.90
3300;DHT22;1662;49.310;8.134;2023-11-22T12:28:27;5.10;99.90
3300;DHT22;1662;49.310;8.134;2023-11-22T12:31:12;5.10;99.90
3300;DHT22;1662;49.310;8.134;2023-11-22T12:33:39;5.20;99.90
3300;DHT22;1662;49.310;8.134;2023-11-22T12:36:07;5.10;99.90
3300;DHT22;1662;49.310;8.134;2023-11-22T12:38:35;5.20;99.90
3300;DHT22;1662;49.310;8.134;2023-11-22T12:41:01;5.20;99.90
3300;DHT22;1662;49.310;8.134;2023-11-22T12:43:31;5.20;99.90
3300;DHT22;1662;49.310;8.134;2023-11-22T12:46:05;5.20;99.90
3300;DHT22;1662;49.310;8.134;2023-11-22T12:48:41;5.20;99.90
3300;DHT22;1662;49.310;8.134;2023-11-22T12:51:16;5.20;99.90
3300;DHT22;1662;49.310;8.134;2023-11-22T12:53:45;5.20;99.90
3300;DHT22;1662;49.310;8.134;2023-11-22T12:56:12;5.40;99.90
3300;DHT22;1662;49.310;8.134;2023-11-22T12:58:38;5.30;99.90
3300;DHT22;1662;49.310;8.134;2023-11-22T13:01:03;5.40;99.90
3300;DHT22;1662;49.310;8.134;2023-11-22T13:03:29;5.60;99.90
3300;DHT22;1662;49.310;8.134;2023-11-22T13:05:55;5.80;99.90
3300;DHT22;1662;49.310;8.134;2023-11-22T13:08:21;5.90;99.90
3300;DHT22;1662;49.310;8.134;2023-11-22T13:10:54;5.90;99.90
3300;DHT22;1662;49.310;8.134;2023-11-22T13:13:24;5.90;99.90
3300;DHT22;1662;49.310;8.134;2023-11-22T13:15:50;5.80;99.90
3300;DHT22;1662;49.310;8.134;2023-11-22T13:18:17;5.80;99.90
3300;DHT22;1662;49.310;8.134;2023-11-22T13:20:43;5.80;99.90
3300;DHT22;1662;49.310;8.134;2023-11-22T13:23:09;5.70;99.90
3300;DHT22;1662;49.310;8.134;2023-11-22T13:25:35;5.70;99.90
3300;DHT22;1662;49.310;8.134;2023-11-22T13:28:02;5.60;99.90
3300;DHT22;1662;49.310;8.134;2023-11-22T13:30:30;5.70;99.90
3300;DHT22;1662;49.310;8.134;2023-11-22T13:32:56;5.70;99.90
3300;DHT22;1662;49.310;8.134;2023-11-22T13:35:23;5.70;99.90
3300;DHT22;1662;49.310;8.134;2023-11-22T13:37:49;5.70;99.90
3300;DHT22;1662;49.310;8.134;2023-11-22T13:40:17;5.60;99.90
3300;DHT22;1662;49.310;8.134;2023-11-22T13:42:45;5.60;99.90
3300;DHT22;1662;49.310;8.134;2023-11-22T13:45:12;5.60;99.90
3300;DHT22;1662;49.310;8.134;2023-11-22T13:47:47;5.70;99.90
3300;DHT22;1662;49.310;8.134;2023-11-22T13:50:17;5.50;99.90
3300;DHT22;1662;49.310;8.134;2023-11-22T13:52:54;5.50;99.90
3300;DHT22;1662;49.310;8.134;2023-11-22T13:55:20;5.50;99.90
3300;DHT22;1662;49.310;8.134;2023-11-22T14:00:20;5.40;99.90
3300;DHT22;1662;49.310;8.134;2023-11-22T14:02:51;5.60;99.90
3300;DHT22;1662;49.310;8.134;2023-11-22T14:05:18;5.60;99.90
3300;DHT22;1662;49.310;8.134;2023-11-22T14:07:44;5.60;99.90
3300;DHT22;1662;49.310;8.134;2023-11-22T14:10:10;5.70;99.90
3300;DHT22;1662;49.310;8.134;2023-11-22T14:12:37;5.80;99.90
3300;DHT22;1662;49.310;8.134;2023-11-22T14:15:03;5.70;99.90
3300;DHT22;1662;49.310;8.134;2023-11-22T14:17:30;5.80;99.90
3300;DHT22;1662;49.310;8.134;2023-11-22T14:19:58;5.80;99.90
3300;DHT22;1662;49.310;8.134;2023-11-22T14:22:26;5.80;99.90
3300;DHT22;1662;49.310;8.134;2023-11-22T14:24:53;5.70;99.90
3300;DHT22;1662;49.310;8.134;2023-11-22T14:27:19;5.60;99.90
3300;DHT22;1662;49.310;8.134;2023-11-22T14:29:48;5.60;99.90
3300;DHT22;1662;49.310;8.134;2023-11-22T14:32:15;5.60;99.90
3300;DHT22;1662;49.310;8.134;2023-11-22T14:34:44;5.50;99.90
3300;DHT22;1662;49.310;8.134;2023-11-22T14:37:10;5.50;99.90
3300;DHT22;1662;49.310;8.134;2023-11-22T14:39:36;5.50;99.90
3300;DHT22;1662;49.310;8.134;2023-11-22T14:42:04;5.40;99.90
3300;DHT22;1662;49.310;8.134;2023-11-22T14:44:36;5.40;99.90
3300;DHT22;1662;49.310;8.134;2023-11-22T14:47:03;5.40;99.90
3300;DHT22;1662;49.310;8.134;2023-11-22T14:49:44;5.40;99.90
3300;DHT22;1662;49.310;8.134;2023-11-22T14:52:10;5.30;99.90
3300;DHT22;1662;49.310;8.134;2023-11-22T14:54:38;5.30;99.90
3300;DHT22;1662;49.310;8.134;2023-11-22T14:57:04;5.40;99.90
3300;DHT22;1662;49.310;8.134;2023-11-22T14:59:31;5.20;99.90
3300;DHT22;1662;49.310;8.134;2023-11-22T15:01:57;5.20;99.90
3300;DHT22;1662;49.310;8.134;2023-11-22T15:04:23;5.20;99.90
3300;DHT22;1662;49.310;8.134;2023-11-22T15:06:50;5.20;99.90
3300;DHT22;1662;49.310;8.134;2023-11-22T15:09:16;5.30;99.90
3300;DHT22;1662;49.310;8.134;2023-11-22T15:11:42;5.30;99.90
3300;DHT22;1662;49.310;8.134;2023-11-22T15:14:08;5.30;99.90
3300;DHT22;1662;49.310;8.134;2023-11-22T15:16:34;5.30;99.90
3300;DHT22;1662;49.310;8.134;2023-11-22T15:19:01;5.30;99.90
3300;DHT22;1662;49.310;8.134;2023-11-22T15:21:32;5.30;99.90
3300;DHT22;1662;49.310;8.134;2023-11-22T15:23:57;5.30;99.90
3300;DHT22;1662;49.310;8.134;2023-11-22T15:26:23;5.20;99.90
3300;DHT22;1662;49.310;8.134;2023-11-22T15:28:50;5.30;99.90
3300;DHT22;1662;49.310;8.134;2023-11-22T15:31:18;5.10;99.90
3300;DHT22;1662;49.310;8.134;2023-11-22T15:33:44;5.00;99.90
3300;DHT22;1662;49.310;8.134;2023-11-22T15:36:11;4.90;99.90
3300;DHT22;1662;49.310;8.134;2023-11-22T15:38:36;4.80;99.90
3300;DHT22;1662;49.310;8.134;2023-11-22T15:41:02;4.70;99.90
3300;DHT22;1662;49.310;8.134;2023-11-22T15:43:30;4.70;99.90
3300;DHT22;1662;49.310;8.134;2023-11-22T15:45:58;4.70;99.90
3300;DHT22;1662;49.310;8.134;2023-11-22T15:48:24;4.60;99.90
3300;DHT22;1662;49.310;8.134;2023-11-22T15:50:53;4.50;99.90
3300;DHT22;1662;49.310;8.134;2023-11-22T15:53:19;4.50;99.90
3300;DHT22;1662;49.310;8.134;2023-11-22T15:55:45;4.50;99.90
3300;DHT22;1662;49.310;8.134;2023-11-22T15:58:10;4.40;99.90
3300;DHT22;1662;49.310;8.134;2023-11-22T16:00:37;4.40;99.90
3300;DHT22;1662;49.310;8.134;2023-11-22T16:03:03;4.40;99.90
3300;DHT22;1662;49.310;8.134;2023-11-22T16:05:32;4.30;99.90
3300;DHT22;1662;49.310;8.134;2023-11-22T16:07:58;4.30;99.90
3300;DHT22;1662;49.310;8.134;2023-11-22T16:10:24;4.20;99.90
3300;DHT22;1662;49.310;8.134;2023-11-22T16:12:49;4.10;99.90
3300;DHT22;1662;49.310;8.134;2023-11-22T16:15:17;4.10;99.90
3300;DHT22;1662;49.310;8.134;2023-11-22T16:17:42;4.10;99.90
3300;DHT22;1662;49.310;8.134;2023-11-22T16:20:08;4.20;99.90
3300;DHT22;1662;49.310;8.134;2023-11-22T16:22:40;4.10;99.90
3300;DHT22;1662;49.310;8.134;2023-11-22T16:25:10;4.00;99.90